Time;durP1;ratioP1;P1;durP2;ratioP2;P2;SDS_P1;SDS_P2;PMS_P1;PMS_P2;Temp;Humidity;BMP_temperature;BMP_pressure;BME280_temperature;BME280_humidity;BME280_pressure;Samples;Min_cycle;Max_cycle;Signal;HPM_P1;HPM_P2
2021/08/01 00:02:22;;;;;;;8.07;3.40;;;;;;;15.35;100.00;99952.09;5142116;28;20030;-75
2021/08/01 00:04:52;;;;;;;4.60;3.20;;;;;;;15.49;100.00;99954.63;5142481;28;20088;-75
2021/08/01 00:07:23;;;;;;;5.90;3.07;;;;;;;15.52;100.00;99959.72;5142878;28;20297;-75
2021/08/01 00:10:00;;;;;;;5.70;3.25;;;;;;;15.48;100.00;99953.81;5145628;28;20313;-75
2021/08/01 00:12:30;;;;;;;6.07;3.05;;;;;;;15.56;100.00;99951.50;5138722;28;20062;-75
2021/08/01 00:15:02;;;;;;;5.47;3.05;;;;;;;15.73;100.00;99947.78;5142310;28;20437;-75
2021/08/01 00:17:32;;;;;;;7.30;3.10;;;;;;;15.69;100.00;99957.66;5142472;28;20489;-75
2021/08/01 00:20:03;;;;;;;5.50;3.03;;;;;;;15.72;100.00;99946.91;5141956;28;20041;-75
2021/08/01 00:22:33;;;;;;;5.82;2.72;;;;;;;15.87;100.00;99958.25;5142438;28;20034;-75
2021/08/01 00:25:04;;;;;;;6.10;3.10;;;;;;;15.88;100.00;99958.13;5147917;28;20037;-75
2021/08/01 00:27:35;;;;;;;4.03;3.00;;;;;;;15.83;100.00;99959.38;5143587;28;20878;-75
2021/08/01 00:30:09;;;;;;;5.55;2.90;;;;;;;15.84;100.00;99950.56;5142108;28;20078;-75
2021/08/01 00:32:40;;;;;;;9.43;2.88;;;;;;;15.61;100.00;99949.44;5142024;28;20043;-75
2021/08/01 00:35:10;;;;;;;4.30;2.80;;;;;;;15.47;100.00;99962.66;5141892;28;20477;-75
2021/08/01 00:37:40;;;;;;;4.25;2.72;;;;;;;15.51;100.00;99958.88;5133505;28;20027;-75
2021/08/01 00:40:11;;;;;;;4.93;3.05;;;;;;;15.16;100.00;99965.53;5135973;28;20106;-75
2021/08/01 00:42:42;;;;;;;5.25;2.90;;;;;;;15.38;100.00;99967.69;5142054;28;20027;-75
2021/08/01 00:45:13;;;;;;;4.88;3.22;;;;;;;15.31;100.00;99961.97;5142854;28;20539;-75
2021/08/01 00:47:43;;;;;;;5.47;3.70;;;;;;;15.11;100.00;99964.13;5140378;28;20033;-75
2021/08/01 00:50:14;;;;;;;4.53;3.20;;;;;;;15.17;100.00;99967.22;5144671;28;20030;-75
2021/08/01 00:52:49;;;;;;;4.45;3.17;;;;;;;15.30;100.00;99962.91;5141840;28;20044;-75
2021/08/01 00:55:19;;;;;;;5.77;3.50;;;;;;;15.16;100.00;99960.28;5143988;28;20397;-75
2021/08/01 00:57:49;;;;;;;5.20;3.65;;;;;;;15.17;100.00;99947.97;5141943;28;20034;-75
2021/08/01 01:03:24;;;;;;;5.25;3.72;;;;;;;15.03;100.00;99954.09;5138886;28;20121;-75
2021/08/01 01:06:01;;;;;;;5.85;3.75;;;;;;;14.82;100.00;99947.56;5141558;28;20055;-75
2021/08/01 01:08:50;;;;;;;7.95;3.75;;;;;;;14.87;100.00;99948.09;5137952;28;20386;-75
2021/08/01 01:11:26;;;;;;;8.25;3.83;;;;;;;14.62;100.00;99943.66;5140779;28;20034;-75
2021/08/01 01:14:00;;;;;;;7.32;3.60;;;;;;;14.63;100.00;99945.34;5138134;28;20266;-75
2021/08/01 01:16:37;;;;;;;6.15;3.40;;;;;;;14.71;100.00;99937.78;5139612;28;20215;-75
2021/08/01 01:19:11;;;;;;;4.88;3.35;;;;;;;14.79;100.00;99928.47;5141417;28;20023;-75
2021/08/01 01:21:58;;;;;;;6.55;3.42;;;;;;;14.99;100.00;99923.66;5141339;28;20089;-75
2021/08/01 01:24:32;;;;;;;5.93;3.38;;;;;;;14.99;100.00;99923.66;5142444;28;20054;-77
2021/08/01 01:27:04;;;;;;;4.53;3.40;;;;;;;14.88;100.00;99920.84;5142655;28;20548;-77
2021/08/01 01:29:53;;;;;;;4.60;3.13;;;;;;;14.85;100.00;99921.06;5141448;28;20030;-77
2021/08/01 01:32:44;;;;;;;5.53;3.47;;;;;;;14.92;100.00;99911.00;5139598;28;20342;-77
2021/08/01 01:35:17;;;;;;;6.53;3.47;;;;;;;14.98;100.00;99911.44;5139193;28;20034;-77
2021/08/01 01:37:50;;;;;;;5.40;3.15;;;;;;;15.11;100.00;99909.72;5141805;28;20029;-76
2021/08/01 01:40:22;;;;;;;6.30;3.67;;;;;;;15.12;100.00;99908.78;5142050;28;20042;-76
2021/08/01 01:42:54;;;;;;;5.82;3.85;;;;;;;15.07;100.00;99915.28;5142692;28;20034;-77
2021/08/01 01:45:27;;;;;;;8.50;3.63;;;;;;;14.93;100.00;99907.41;5141058;28;20038;-76
2021/08/01 01:47:59;;;;;;;7.25;3.47;;;;;;;15.01;100.00;99910.41;5137041;28;20035;-76
2021/08/01 01:50:30;;;;;;;4.95;3.80;;;;;;;15.12;100.00;99914.03;5140938;28;20361;-77
2021/08/01 01:53:01;;;;;;;6.82;3.70;;;;;;;15.26;100.00;99906.09;5140073;28;20195;-76
2021/08/01 01:55:32;;;;;;;7.13;3.83;;;;;;;15.24;100.00;99910.63;5142830;28;20062;-77
2021/08/01 01:58:02;;;;;;;5.43;3.50;;;;;;;15.37;100.00;99914.16;5141426;28;20034;-77
2021/08/01 02:00:33;;;;;;;5.55;3.53;;;;;;;15.31;100.00;99913.72;5138892;28;20131;-77
2021/08/01 02:03:03;;;;;;;7.30;4.07;;;;;;;15.26;100.00;99911.38;5139765;28;20452;-76
2021/08/01 02:05:33;;;;;;;5.55;4.03;;;;;;;15.19;100.00;99910.06;5140610;28;20033;-77
2021/08/01 02:08:04;;;;;;;4.38;3.42;;;;;;;15.13;100.00;99907.84;5174555;23;20046;-79
2021/08/01 02:10:38;;;;;;;4.97;3.80;;;;;;;15.18;100.00;99903.09;5165418;28;20050;-78
2021/08/01 02:13:09;;;;;;;6.25;3.92;;;;;;;15.23;100.00;99900.19;5163976;28;20053;-77
2021/08/01 02:15:49;;;;;;;7.00;3.95;;;;;;;15.24;100.00;99896.59;5164588;28;20026;-78
2021/08/01 02:18:23;;;;;;;7.15;3.80;;;;;;;15.24;100.00;99891.34;5144750;28;20105;-76
2021/08/01 02:20:55;;;;;;;10.57;3.92;;;;;;;15.16;100.00;99894.47;5144968;28;20042;-75
2021/08/01 02:23:30;;;;;;;8.63;4.30;;;;;;;15.25;100.00;99888.63;5144209;28;20062;-76
2021/08/01 02:26:01;;;;;;;9.20;4.25;;;;;;;15.24;100.00;99888.72;5149373;28;20313;-79
2021/08/01 02:28:34;;;;;;;7.65;4.30;;;;;;;15.24;100.00;99892.19;5144241;28;20027;-77
2021/08/01 02:31:05;;;;;;;7.88;4.15;;;;;;;15.27;100.00;99885.88;5143869;28;20037;-79
2021/08/01 02:33:36;;;;;;;8.95;4.03;;;;;;;15.40;100.00;99884.97;5143976;28;20518;-77
2021/08/01 02:36:08;;;;;;;7.90;4.00;;;;;;;15.32;100.00;99891.72;5145356;28;20477;-78
2021/08/01 02:38:40;;;;;;;7.63;4.32;;;;;;;15.25;100.00;99888.63;5145747;28;20038;-79
2021/08/01 02:41:19;;;;;;;6.40;4.10;;;;;;;15.28;100.00;99893.69;5144860;28;20026;-79
2021/08/01 02:43:49;;;;;;;5.03;3.58;;;;;;;15.26;100.00;99899.97;5146033;28;20034;-76
2021/08/01 02:46:25;;;;;;;7.07;4.22;;;;;;;15.25;100.00;99893.88;5143619;28;20041;-77
2021/08/01 02:48:58;;;;;;;10.00;4.20;;;;;;;15.22;100.00;99894.06;5140995;28;20051;-75
2021/08/01 02:51:30;;;;;;;6.20;4.00;;;;;;;15.26;100.00;99897.34;5139797;28;20461;-79
2021/08/01 02:54:03;;;;;;;7.82;4.10;;;;;;;15.22;100.00;99904.59;5144248;28;20027;-79
2021/08/01 02:56:35;;;;;;;5.88;3.80;;;;;;;15.32;100.00;99902.25;5145871;28;20459;-77
2021/08/01 02:59:07;;;;;;;5.82;3.83;;;;;;;15.28;100.00;99912.09;5143984;28;20374;-79
2021/08/01 03:01:39;;;;;;;4.72;3.78;;;;;;;15.26;100.00;99913.13;5144184;28;20022;-79
2021/08/01 03:04:14;;;;;;;6.13;4.10;;;;;;;15.20;100.00;99922.28;5143464;28;20030;-79
2021/08/01 03:06:45;;;;;;;6.30;4.10;;;;;;;15.33;100.00;99922.38;5146121;28;20033;-76
2021/08/01 03:09:15;;;;;;;8.18;4.18;;;;;;;15.36;100.00;99917.72;5146697;28;20038;-79
2021/08/01 03:11:45;;;;;;;6.30;4.13;;;;;;;15.33;100.00;99923.22;5146206;28;20074;-79
2021/08/01 03:14:15;;;;;;;4.88;3.55;;;;;;;15.24;100.00;99934.31;5144933;28;20444;-79
2021/08/01 03:16:46;;;;;;;5.95;3.70;;;;;;;15.28;100.00;99914.75;5143790;28;20444;-79
2021/08/01 03:19:16;;;;;;;5.93;3.85;;;;;;;15.19;100.00;99915.31;5143259;28;20034;-79
2021/08/01 03:21:46;;;;;;;6.50;4.00;;;;;;;15.12;100.00;99913.19;5142514;28;20051;-78
2021/08/01 03:24:17;;;;;;;8.32;4.03;;;;;;;15.10;100.00;99920.34;5146050;28;20482;-78
2021/08/01 03:26:47;;;;;;;6.85;3.67;;;;;;;15.29;100.00;99916.47;5145490;28;20026;-76
2021/08/01 03:29:17;;;;;;;12.67;7.97;;;;;;;15.20;100.00;99922.28;5144418;28;20058;-77
2021/08/01 03:31:47;;;;;;;12.20;7.45;;;;;;;15.13;100.00;99931.53;5143976;28;20296;-78
2021/08/01 03:34:18;;;;;;;6.45;4.60;;;;;;;15.21;100.00;99942.38;5143709;28;20033;-79
2021/08/01 03:36:48;;;;;;;6.07;4.15;;;;;;;15.24;100.00;99944.00;5144750;28;20027;-79
2021/08/01 03:39:19;;;;;;;7.30;4.30;;;;;;;15.14;100.00;99950.78;5144782;28;20058;-76
2021/08/01 03:41:49;;;;;;;6.50;4.38;;;;;;;15.24;100.00;99954.53;5147051;28;20034;-76
2021/08/01 03:44:19;;;;;;;6.40;4.10;;;;;;;15.20;100.00;99955.66;5144318;28;20035;-77
2021/08/01 03:46:49;;;;;;;7.78;4.32;;;;;;;15.07;100.00;99960.03;5142684;28;20278;-75
2021/08/01 03:49:20;;;;;;;7.60;4.40;;;;;;;14.79;100.00;99964.50;5144793;28;20073;-77
2021/08/01 03:51:51;;;;;;;5.78;4.35;;;;;;;14.90;100.00;99970.75;5144571;28;20031;-78
2021/08/01 03:54:21;;;;;;;6.28;4.70;;;;;;;14.72;100.00;99978.94;5145562;28;20046;-79
2021/08/01 03:56:51;;;;;;;7.90;4.60;;;;;;;14.55;100.00;99977.38;5144774;28;20029;-79
2021/08/01 03:59:21;;;;;;;7.22;4.70;;;;;;;14.73;100.00;99967.50;5145176;28;20514;-80
2021/08/01 04:01:52;;;;;;;6.93;4.27;;;;;;;14.66;100.00;99966.19;5145182;28;20026;-77
2021/08/01 04:04:22;;;;;;;11.32;4.63;;;;;;;14.58;100.00;99969.28;5143546;28;20557;-76
2021/08/01 04:06:52;;;;;;;10.25;5.07;;;;;;;14.47;100.00;99968.25;5142993;28;20400;-78
2021/08/01 04:09:23;;;;;;;6.07;4.40;;;;;;;14.56;100.00;99972.97;5143785;28;20027;-79
2021/08/01 04:11:53;;;;;;;8.75;4.80;;;;;;;14.62;100.00;99970.78;5143355;28;20304;-78
2021/08/01 04:14:26;;;;;;;5.10;4.28;;;;;;;14.56;100.00;99967.72;5144126;28;20042;-79
2021/08/01 04:16:58;;;;;;;7.80;4.60;;;;;;;14.61;100.00;99963.00;5139167;28;20431;-78
2021/08/01 04:19:28;;;;;;;7.93;5.38;;;;;;;14.40;100.00;99953.81;5141903;28;20625;-79
2021/08/01 04:21:58;;;;;;;7.30;5.00;;;;;;;14.40;100.00;99956.44;5150350;28;20038;-76
2021/08/01 04:24:29;;;;;;;7.57;4.57;;;;;;;14.51;100.00;99952.19;5152908;28;20061;-78
2021/08/01 04:26:59;;;;;;;6.30;4.63;;;;;;;14.53;100.00;99946.81;5146894;28;20516;-78
2021/08/01 04:29:29;;;;;;;7.30;4.80;;;;;;;14.50;100.00;99945.25;5151184;28;20042;-79
2021/08/01 04:32:00;;;;;;;7.37;4.70;;;;;;;14.61;100.00;99939.31;5146065;28;20039;-79
2021/08/01 04:34:30;;;;;;;6.23;4.90;;;;;;;14.70;100.00;99942.22;5146000;28;20619;-79
2021/08/01 04:37:00;;;;;;;6.25;4.00;;;;;;;14.80;100.00;99938.06;5146502;28;20697;-79
2021/08/01 04:39:30;;;;;;;7.20;4.45;;;;;;;15.04;100.00;99942.63;5150000;28;20091;-79
2021/08/01 04:42:01;;;;;;;8.15;3.67;;;;;;;15.27;100.00;99943.78;5148232;28;20033;-79
2021/08/01 04:44:32;;;;;;;6.22;4.05;;;;;;;15.46;100.00;99929.38;5148332;28;20038;-77
2021/08/01 04:47:02;;;;;;;5.68;3.78;;;;;;;16.45;100.00;99927.84;5146888;28;20031;-78
2021/08/01 04:49:32;;;;;;;6.03;3.47;;;;;;;17.24;91.70;99929.97;5147025;28;20022;-79
2021/08/01 04:52:03;;;;;;;8.67;3.40;;;;;;;17.98;88.60;99929.69;5145091;28;20050;-79
2021/08/01 04:54:36;;;;;;;4.43;2.80;;;;;;;17.63;93.51;99931.50;5148146;28;20340;-79
2021/08/01 04:57:06;;;;;;;4.93;2.92;;;;;;;18.65;87.65;99927.03;5149760;28;20070;-77
2021/08/01 04:59:37;;;;;;;6.57;3.28;;;;;;;19.14;85.60;99917.69;5147782;28;20058;-78
2021/08/01 05:02:07;;;;;;;4.88;3.03;;;;;;;20.74;80.03;99914.53;5153048;28;20105;-78
2021/08/01 05:04:37;;;;;;;4.20;2.78;;;;;;;21.78;75.61;99915.78;5153329;28;20026;-80
2021/08/01 05:07:08;;;;;;;4.20;2.73;;;;;;;22.35;72.75;99918.31;5145664;28;20061;-78
2021/08/01 05:09:38;;;;;;;7.33;3.10;;;;;;;23.03;69.98;99919.59;5149472;28;20276;-77
2021/08/01 05:12:08;;;;;;;5.67;2.83;;;;;;;22.10;73.19;99917.13;5146266;28;20306;-77
2021/08/01 05:14:39;;;;;;;5.28;2.42;;;;;;;22.15;73.62;99920.22;5152026;28;20277;-79
2021/08/01 05:17:09;;;;;;;5.20;2.47;;;;;;;21.98;75.25;99917.44;5152828;28;20034;-80
2021/08/01 05:19:40;;;;;;;3.70;2.50;;;;;;;22.26;74.53;99924.53;5151521;28;20608;-80
2021/08/01 05:22:11;;;;;;;4.35;2.33;;;;;;;21.77;77.79;99932.72;5154313;28;20030;-76
2021/08/01 05:24:43;;;;;;;5.75;2.70;;;;;;;21.81;77.55;99926.13;5154205;28;20030;-78
2021/08/01 05:27:13;;;;;;;4.47;2.50;;;;;;;21.78;75.81;99926.41;5151561;28;20050;-78
2021/08/01 05:29:44;;;;;;;4.97;2.67;;;;;;;21.06;79.11;99920.56;5148741;28;20492;-76
2021/08/01 05:32:14;;;;;;;3.75;2.60;;;;;;;21.31;77.04;99917.41;5148754;28;20274;-79
2021/08/01 05:34:44;;;;;;;3.73;2.60;;;;;;;20.25;81.27;99918.06;5153775;28;20062;-79
2021/08/01 05:37:15;;;;;;;4.13;2.58;;;;;;;20.53;79.65;99910.28;5152756;28;20285;-79
2021/08/01 05:39:45;;;;;;;5.70;3.17;;;;;;;20.25;81.38;99912.78;5149634;28;20031;-77
2021/08/01 05:42:16;;;;;;;4.47;2.80;;;;;;;20.27;82.40;99910.84;5145202;28;20049;-78
2021/08/01 05:44:46;;;;;;;6.72;2.70;;;;;;;20.06;83.21;99913.50;5145941;28;20090;-76
2021/08/01 05:47:16;;;;;;;5.57;3.00;;;;;;;19.61;85.84;99908.53;5149347;28;20518;-78
2021/08/01 05:49:47;;;;;;;5.67;2.90;;;;;;;19.90;84.59;99912.25;5145764;28;20022;-79
2021/08/01 05:52:17;;;;;;;5.60;2.95;;;;;;;20.30;83.53;99921.19;5150061;28;20647;-79
2021/08/01 05:54:47;;;;;;;5.33;2.90;;;;;;;21.22;80.61;99917.38;5150055;28;20034;-78
2021/08/01 05:57:17;;;;;;;8.30;3.05;;;;;;;21.32;79.95;99908.44;5153769;28;20270;-78
2021/08/01 05:59:48;;;;;;;5.60;3.13;;;;;;;20.54;82.10;99909.31;5153431;28;20033;-77
2021/08/01 06:02:18;;;;;;;5.80;2.83;;;;;;;21.34;79.76;99898.50;5150379;28;20792;-80
2021/08/01 06:04:49;;;;;;;7.88;3.30;;;;;;;20.73;82.48;99898.75;5151131;28;20608;-79
2021/08/01 06:07:20;;;;;;;3.88;2.90;;;;;;;21.21;78.52;99894.44;5150144;28;20022;-76
2021/08/01 06:09:50;;;;;;;7.27;3.27;;;;;;;21.69;77.22;99890.84;5149551;28;20023;-75
2021/08/01 06:12:20;;;;;;;6.40;3.47;;;;;;;21.66;77.05;99895.59;5144915;28;20369;-78
2021/08/01 06:14:51;;;;;;;5.28;3.80;;;;;;;21.65;76.17;99888.59;5145032;28;20294;-78
2021/08/01 06:17:22;;;;;;;6.60;3.50;;;;;;;21.73;78.11;99888.75;5144951;28;20198;-78
2021/08/01 06:19:54;;;;;;;8.57;4.00;;;;;;;21.71;76.71;99901.34;5145399;28;20393;-78
2021/08/01 06:22:25;;;;;;;6.30;3.63;;;;;;;21.45;79.20;99902.84;5141387;28;20357;-78
2021/08/01 06:24:55;;;;;;;6.82;4.53;;;;;;;21.26;78.69;99903.66;5144269;28;20115;-78
2021/08/01 06:27:25;;;;;;;6.03;3.70;;;;;;;22.05;77.23;99897.25;5147517;28;20054;-79
2021/08/01 06:29:55;;;;;;;8.20;4.00;;;;;;;22.18;75.78;99897.75;5144765;28;20353;-78
2021/08/01 06:32:26;;;;;;;6.20;3.40;;;;;;;22.22;76.08;99899.19;5145121;28;20273;-79
2021/08/01 06:34:56;;;;;;;7.60;3.43;;;;;;;22.05;77.57;99899.91;5145822;28;20778;-79
2021/08/01 06:37:26;;;;;;;8.68;4.15;;;;;;;22.31;76.05;99904.47;5143240;28;20274;-79
2021/08/01 06:39:57;;;;;;;5.73;3.50;;;;;;;22.03;76.96;99900.06;5148428;28;20059;-79
2021/08/01 06:42:27;;;;;;;6.33;4.00;;;;;;;21.97;77.18;99899.78;5153057;28;20286;-79
2021/08/01 06:44:57;;;;;;;7.40;4.27;;;;;;;22.34;75.13;99903.34;5144167;28;20336;-79
2021/08/01 06:47:27;;;;;;;10.73;4.37;;;;;;;22.20;76.32;99906.44;5144900;28;20278;-79
2021/08/01 06:49:58;;;;;;;8.00;3.80;;;;;;;22.18;76.57;99903.09;5148768;28;20330;-79
2021/08/01 06:52:28;;;;;;;8.87;4.70;;;;;;;22.17;76.62;99901.41;5143556;28;20281;-79
2021/08/01 06:54:58;;;;;;;7.53;3.90;;;;;;;22.44;76.25;99898.84;5146892;28;20304;-79
2021/08/01 06:57:29;;;;;;;7.77;3.90;;;;;;;22.82;73.73;99892.38;5144870;28;20039;-79
2021/08/01 06:59:59;;;;;;;6.82;4.10;;;;;;;23.09;73.71;99897.69;5143241;28;20313;-79
2021/08/01 07:02:29;;;;;;;6.15;3.50;;;;;;;22.12;77.85;99903.69;5139088;28;20027;-79
2021/08/01 07:05:00;;;;;;;6.00;3.30;;;;;;;22.25;77.32;99912.19;5142983;28;20023;-79
2021/08/01 07:07:30;;;;;;;6.35;3.97;;;;;;;21.32;79.24;99902.28;5148446;28;20305;-79
2021/08/01 07:10:01;;;;;;;6.85;3.53;;;;;;;21.22;80.17;99912.06;5146857;28;20110;-79
2021/08/01 07:12:31;;;;;;;7.10;4.07;;;;;;;21.12;81.70;99913.84;5148685;28;20026;-79
2021/08/01 07:15:01;;;;;;;5.60;3.87;;;;;;;20.78;81.74;99912.47;5150619;28;20085;-79
2021/08/01 07:17:32;;;;;;;8.93;4.10;;;;;;;21.12;82.20;99916.50;5149617;28;20282;-79
2021/08/01 07:20:04;;;;;;;4.53;3.47;;;;;;;21.28;81.42;99908.84;5144752;28;20866;-79
2021/08/01 07:22:35;;;;;;;8.45;3.38;;;;;;;21.12;80.85;99908.53;5145580;28;20035;-79
2021/08/01 07:25:07;;;;;;;5.72;3.67;;;;;;;22.45;76.66;99897.88;5146357;28;20484;-79
2021/08/01 07:27:37;;;;;;;6.53;3.33;;;;;;;22.37;76.34;99906.56;5145818;28;20486;-79
2021/08/01 07:30:08;;;;;;;5.03;2.90;;;;;;;22.68;74.73;99894.69;5142509;28;20109;-79
2021/08/01 07:32:38;;;;;;;5.68;3.28;;;;;;;21.95;75.67;99896.41;5147718;28;20862;-79
2021/08/01 07:35:09;;;;;;;6.93;3.30;;;;;;;21.43;77.14;99899.50;5146521;28;20035;-78
2021/08/01 07:37:39;;;;;;;8.07;3.45;;;;;;;21.26;78.91;99902.84;5142550;28;20445;-79
2021/08/01 07:40:10;;;;;;;6.63;3.15;;;;;;;21.76;76.79;99896.44;5144289;28;20023;-79
2021/08/01 07:42:41;;;;;;;6.75;3.42;;;;;;;21.85;76.50;99895.59;5143834;28;20038;-79
2021/08/01 07:45:23;;;;;;;7.47;3.35;;;;;;;22.29;75.92;99886.97;5138236;28;20022;-78
2021/08/01 07:47:53;;;;;;;6.00;3.35;;;;;;;22.35;76.42;99887.22;5145703;28;20147;-78
2021/08/01 07:50:23;;;;;;;6.18;3.03;;;;;;;22.03;74.14;99905.38;5143945;28;20078;-78
2021/08/01 07:52:54;;;;;;;8.20;2.90;;;;;;;22.24;75.08;99907.88;5143940;28;20039;-79
2021/08/01 07:55:24;;;;;;;6.03;3.15;;;;;;;21.75;75.78;99900.09;5151844;28;20038;-78
2021/08/01 07:57:55;;;;;;;7.03;3.50;;;;;;;21.83;76.43;99905.53;5148569;28;20035;-79
2021/08/01 08:00:26;;;;;;;6.85;3.20;;;;;;;21.30;77.02;99905.09;5139222;28;20093;-79
2021/08/01 08:02:56;;;;;;;7.18;3.00;;;;;;;21.17;76.73;99914.28;5143353;28;20027;-79
2021/08/01 08:05:26;;;;;;;7.70;3.07;;;;;;;21.38;76.81;99912.38;5143151;28;20127;-79
2021/08/01 08:07:57;;;;;;;6.37;3.00;;;;;;;21.76;77.28;99912.41;5146095;28;20823;-78
2021/08/01 08:10:27;;;;;;;11.00;2.93;;;;;;;21.65;76.42;99907.22;5146341;28;20277;-79
2021/08/01 08:12:59;;;;;;;5.82;2.90;;;;;;;21.93;75.32;99909.03;5144591;28;20340;-78
2021/08/01 08:15:29;;;;;;;5.63;3.25;;;;;;;22.02;74.64;99908.16;5144376;28;20026;-79
2021/08/01 08:18:00;;;;;;;5.28;3.15;;;;;;;22.40;73.39;99913.47;5144289;28;20100;-79
2021/08/01 08:20:31;;;;;;;8.47;3.07;;;;;;;22.12;74.67;99914.31;5143175;28;20033;-78
2021/08/01 08:23:01;;;;;;;4.82;2.47;;;;;;;22.13;74.99;99910.69;5141707;28;20820;-78
2021/08/01 08:25:31;;;;;;;4.85;2.75;;;;;;;22.00;76.65;99915.47;5138100;28;20093;-78
2021/08/01 08:28:02;;;;;;;5.32;3.33;;;;;;;21.72;76.87;99911.03;5142562;28;20077;-79
2021/08/01 08:30:32;;;;;;;5.03;3.08;;;;;;;21.81;77.06;99915.47;5142030;28;20027;-78
2021/08/01 08:33:04;;;;;;;5.55;3.17;;;;;;;22.09;74.74;99904.78;5142369;28;20027;-78
2021/08/01 08:35:34;;;;;;;6.55;3.50;;;;;;;22.17;75.06;99906.75;5139739;28;20463;-79
2021/08/01 08:38:05;;;;;;;5.43;3.15;;;;;;;22.06;76.21;99914.91;5142256;28;20026;-78
2021/08/01 08:40:38;;;;;;;4.97;2.80;;;;;;;22.26;75.45;99916.53;5142309;28;20039;-79
2021/08/01 08:43:09;;;;;;;7.25;2.70;;;;;;;21.85;75.45;99907.09;5141327;28;20282;-78
2021/08/01 08:45:44;;;;;;;6.15;3.08;;;;;;;21.28;77.58;99911.50;5143674;28;20088;-78
2021/08/01 08:48:16;;;;;;;6.70;3.08;;;;;;;21.71;76.91;99920.81;5140039;28;20436;-78
2021/08/01 08:50:50;;;;;;;6.18;2.92;;;;;;;21.43;77.25;99915.44;5140439;28;20437;-78
2021/08/01 08:53:24;;;;;;;6.00;3.20;;;;;;;21.57;75.20;99918.53;5139070;28;20037;-78
2021/08/01 08:55:55;;;;;;;4.63;3.00;;;;;;;21.20;75.77;99924.66;5145373;28;20062;-78
2021/08/01 08:58:29;;;;;;;6.18;2.75;;;;;;;21.48;76.48;99918.53;5137399;28;20528;-78
2021/08/01 09:00:59;;;;;;;5.55;2.80;;;;;;;22.50;73.10;99911.59;5140421;28;20041;-78
2021/08/01 09:03:30;;;;;;;7.05;3.15;;;;;;;23.47;69.78;99902.78;5135108;28;20774;-78
2021/08/01 09:06:00;;;;;;;4.43;2.67;;;;;;;23.72;70.35;99910.00;5140073;28;20030;-79
2021/08/01 09:08:31;;;;;;;6.22;2.70;;;;;;;24.91;66.90;99907.38;5146389;28;20153;-79
2021/08/01 09:11:01;;;;;;;7.00;2.90;;;;;;;25.37;66.19;99906.03;5141333;28;20027;-79
2021/08/01 09:13:48;;;;;;;4.47;2.70;;;;;;;25.25;64.33;99901.97;5142643;28;20045;-79
2021/08/01 09:16:21;;;;;;;5.45;2.45;;;;;;;24.94;66.10;99915.06;5141561;28;20034;-79
2021/08/01 09:18:51;;;;;;;5.15;2.50;;;;;;;24.42;67.24;99901.88;5141463;28;20152;-79
2021/08/01 09:21:33;;;;;;;5.72;2.80;;;;;;;24.53;67.36;99904.34;5138925;28;20130;-79
2021/08/01 09:24:03;;;;;;;5.80;2.80;;;;;;;24.34;66.23;99909.88;5136160;28;20501;-78
2021/08/01 09:26:48;;;;;;;6.80;2.42;;;;;;;24.59;67.07;99909.03;5144898;28;20034;-79
2021/08/01 09:29:19;;;;;;;5.50;2.95;;;;;;;24.59;67.18;99902.88;5142113;28;20037;-79
2021/08/01 09:31:57;;;;;;;5.10;2.45;;;;;;;24.18;68.19;99899.06;5143984;28;20417;-79
2021/08/01 09:34:28;;;;;;;5.30;2.90;;;;;;;23.78;67.24;99912.09;5137969;28;20085;-79
2021/08/01 09:37:03;;;;;;;5.78;2.88;;;;;;;22.94;70.07;99915.19;5140128;28;20038;-78
2021/08/01 09:39:41;;;;;;;5.95;3.10;;;;;;;23.09;69.69;99913.69;5143025;28;20560;-79
2021/08/01 09:42:11;;;;;;;4.15;2.50;;;;;;;23.38;71.04;99908.19;5141772;28;20409;-79
2021/08/01 09:44:43;;;;;;;6.05;3.17;;;;;;;23.27;70.73;99911.06;5140932;28;20043;-79
2021/08/01 09:47:23;;;;;;;5.47;2.65;;;;;;;23.18;70.86;99912.81;5140849;28;20326;-78
2021/08/01 09:50:07;;;;;;;5.88;2.60;;;;;;;23.70;68.70;99909.34;5138978;28;20026;-79
2021/08/01 09:52:37;;;;;;;3.90;2.38;;;;;;;23.58;70.46;99905.25;5142971;28;20370;-78
2021/08/01 09:55:21;;;;;;;5.22;2.40;;;;;;;24.02;68.11;99898.97;5141632;28;20080;-79
2021/08/01 09:57:53;;;;;;;3.83;2.22;;;;;;;24.43;68.19;99898.25;5141995;28;20050;-79
2021/08/01 10:00:24;;;;;;;3.92;2.28;;;;;;;24.22;67.05;99899.59;5143537;28;20506;-79
2021/08/01 10:02:57;;;;;;;5.15;2.70;;;;;;;24.10;66.44;99898.19;5140658;28;20038;-79
2021/08/01 10:05:28;;;;;;;5.82;2.60;;;;;;;24.38;68.66;99899.72;5139869;28;20038;-79
2021/08/01 10:07:58;;;;;;;4.07;2.10;;;;;;;24.45;66.70;99892.72;5141086;28;20378;-79
2021/08/01 10:10:28;;;;;;;4.03;2.50;;;;;;;24.97;65.41;99895.19;5142356;28;20030;-79
2021/08/01 10:12:58;;;;;;;4.90;2.70;;;;;;;24.65;67.84;99889.72;5140997;28;20320;-79
2021/08/01 10:15:31;;;;;;;3.20;2.30;;;;;;;24.76;66.95;99894.75;5142680;28;20293;-79
2021/08/01 10:18:01;;;;;;;5.25;2.20;;;;;;;24.94;65.69;99882.97;5141606;28;20023;-79
2021/08/01 10:20:32;;;;;;;5.13;2.40;;;;;;;25.18;65.56;99884.88;5141318;28;20327;-79
2021/08/01 10:23:02;;;;;;;6.40;2.60;;;;;;;24.59;66.97;99884.16;5145627;28;20058;-79
2021/08/01 10:25:33;;;;;;;5.72;2.60;;;;;;;25.21;67.20;99880.09;5141852;28;20433;-79
2021/08/01 10:28:06;;;;;;;3.83;2.30;;;;;;;24.63;66.58;99866.78;5149996;28;20255;-79
2021/08/01 10:30:40;;;;;;;3.47;2.40;;;;;;;24.79;66.14;99876.56;5145788;28;20026;-79
2021/08/01 10:33:14;;;;;;;3.63;2.20;;;;;;;24.38;68.42;99865.81;5147432;28;20603;-79
2021/08/01 10:35:51;;;;;;;4.78;2.38;;;;;;;24.56;68.86;99865.78;5149156;28;20114;-79
2021/08/01 10:38:24;;;;;;;5.95;2.47;;;;;;;24.53;69.19;99869.59;5146053;28;20041;-80
2021/08/01 10:41:00;;;;;;;5.95;2.30;;;;;;;24.46;68.03;99855.16;5144673;28;20409;-79
2021/08/01 10:43:34;;;;;;;4.60;2.17;;;;;;;24.28;68.72;99856.22;5147143;28;20058;-78
2021/08/01 10:46:05;;;;;;;4.07;2.30;;;;;;;24.46;67.03;99865.00;5148809;28;20034;-79
2021/08/01 10:48:35;;;;;;;3.55;1.90;;;;;;;24.26;65.13;99859.06;5146463;28;20635;-78
2021/08/01 10:51:05;;;;;;;2.67;1.75;;;;;;;23.94;67.95;99858.88;5146388;28;20078;-78
2021/08/01 10:53:36;;;;;;;3.35;1.90;;;;;;;24.03;69.65;99857.91;5149824;28;20030;-79
2021/08/01 10:56:06;;;;;;;3.57;2.20;;;;;;;23.84;68.23;99851.94;5144619;28;20121;-78
2021/08/01 10:58:37;;;;;;;4.40;2.30;;;;;;;23.87;66.46;99856.97;5145828;28;20274;-79
2021/08/01 11:01:08;;;;;;;4.65;2.00;;;;;;;23.89;68.82;99847.78;5145227;28;20045;-78
2021/08/01 11:03:40;;;;;;;3.05;1.95;;;;;;;24.22;68.44;99846.19;5148858;28;20046;-79
2021/08/01 11:06:35;;;;;;;3.38;1.90;;;;;;;24.64;66.01;99839.06;5145934;28;20481;-78
2021/08/01 11:09:09;;;;;;;3.03;1.70;;;;;;;25.31;64.53;99837.13;5140506;28;20038;-79
2021/08/01 11:11:41;;;;;;;2.75;1.55;;;;;;;25.54;63.75;99832.78;5133322;28;20111;-79
2021/08/01 11:14:45;;;;;;;3.92;1.70;;;;;;;25.45;64.89;99823.91;5137594;28;20433;-79
2021/08/01 11:17:17;;;;;;;3.25;1.80;;;;;;;24.95;64.21;99831.16;5137870;28;20027;-79
2021/08/01 11:19:48;;;;;;;3.47;1.95;;;;;;;25.01;67.14;99829.66;5136561;28;20057;-79
2021/08/01 11:22:43;;;;;;;4.28;2.15;;;;;;;24.97;65.04;99817.63;5135369;28;20038;-79
2021/08/01 11:25:24;;;;;;;5.03;2.50;;;;;;;24.56;67.80;99820.34;5132101;28;20026;-79
2021/08/01 11:28:12;;;;;;;3.22;2.40;;;;;;;24.54;65.84;99825.84;5136217;28;20298;-79
2021/08/01 11:30:52;;;;;;;5.63;2.70;;;;;;;24.28;67.43;99827.69;5134801;28;20057;-79
2021/08/01 11:33:43;;;;;;;3.47;1.90;;;;;;;24.07;68.30;99837.91;5131196;28;20030;-78
2021/08/01 11:36:13;;;;;;;4.30;2.20;;;;;;;23.25;71.33;99844.56;5132508;28;20109;-79
2021/08/01 11:38:50;;;;;;;3.38;2.08;;;;;;;22.11;75.68;99838.09;5131216;28;20043;-78
2021/08/01 11:41:39;;;;;;;3.83;2.20;;;;;;;21.51;79.38;99844.63;5135100;28;20503;-78
2021/08/01 11:44:18;;;;;;;4.43;2.40;;;;;;;21.67;79.63;99844.06;5137370;28;20050;-78
2021/08/01 11:47:04;;;;;;;6.32;2.45;;;;;;;21.60;79.18;99834.97;5148238;28;20113;-78
2021/08/01 11:49:57;;;;;;;5.20;2.17;;;;;;;21.77;76.40;99832.44;5145795;28;20030;-78
2021/08/01 11:52:45;;;;;;;4.88;1.75;;;;;;;21.75;76.79;99837.06;5139410;28;20062;-78
2021/08/01 11:55:17;;;;;;;5.55;2.10;;;;;;;21.71;78.89;99850.81;5142022;28;20539;-78
2021/08/01 11:57:51;;;;;;;4.55;2.20;;;;;;;21.82;78.68;99835.53;5143832;28;20382;-78